SAWESABE

Guest
Details From SAWE - Rio Grande
To SABE - Aeroparque Jorge Newbery
Flight Number -
Tags Generated
Created
Modified
Stats Distance 1,220 nm / 2,260 km
Max Altitude 0 ft / 0 m
Waypoints 3
Social Downloads 1
Likes 0
Share VATSIM

Download

Looking for another format? Having issues loading an existing format? Contact us
Advertisement - Login to hide

Notes

Generated

Route

SAWE A SABE

ID Type Via Altitude Latitude Longitude Leg Dist Tot Dist Heading (true) Name
O SAWE APT - 0 ft / 0 m -53.77806˚ -67.76453˚ - 0 nm - -
A NDB - 0 ft / 0 m -34.84164˚ -58.52236˚ 1202 nm 1202 nm 23° / 16° MINISTRO PISTARINI NDB
O SABE APT - 0 ft / 0 m -34.55416˚ -58.42526˚ 17 nm 1220 nm 16° / 15° -

Altitude Profile

Advertisement - Login to hide

Weather


0- 5 10 15 20 25 30 35+ Temperature / ° C

Clouds and Precipitation
Forecast for 2017-12-17 12:00 UTC. Updated an hour ago

Ground ~20,000 ft ~40,000 ft Winds

SAWE

Details ICAO SAWE (RGA)
Name RIO GRANDE
Region Argentina
Timezone America/Argentina/Ushuaia (UTC-3.0)
Stats Elevation 65 ft / 20 m (AMSL)
Location -53.777667° -67.749389°
Runways 1
Magnetic Variation 11.391° E

METAR

SAWE 171000Z 29014KT CAVOK 05/01 Q0998

Decode

TAF

TAF SAWE 170500Z 1706/1806 27015G30KT 9999 SCT030 TX13/1719Z TN01/1710Z BECMG 1709/1711 29035G50KT 6000 RA SCT020 OVC040

Decode

Departure Runways

ID Width Length Bearing (true) Bearing (mag) Surface Threshold Offset Overrun Length
07 131 ft / 40 m 6,535 ft / 1,992 m 87.52° 76.13° Asphalt 0 ft / 0 m 165 ft / 50 m
25 131 ft / 40 m 6,535 ft / 1,992 m 267.50° 256.11° Asphalt 0 ft / 0 m 180 ft / 55 m

SABE

Details ICAO SABE (AEP)
Name Aeroparque Jorge Newbery
Region Argentina
Timezone Unknown (UTC+0.0)
Stats Elevation 17 ft / 5 m (AMSL)
Location -34.559414° -58.415749°
Runways 1
Magnetic Variation 8.982° W

METAR

SABE 171000Z 19010KT 9999 SCT020 OVC100 18/15 Q1006

Decode

TAF

TAF AMD SABE 170700Z 1707/1806 35015KT 9999 BKN015 BKN030 TX24/1719Z TN21/1710Z TEMPO 1707/1709 3000 TSRA FEW035CB BECMG 1708/1710 22015G25KT 9999 BKN020 OVC090 BECMG 1713/1715 22010KT 9999 BKN025 BKN090 BECMG 1717/1719 16010KT CAVOK

Decode

Destination Runways

ID Width Length Bearing (true) Bearing (mag) Surface Threshold Offset Overrun Length
13 131 ft / 40 m 6,882 ft / 2,098 m 123.87° 132.85° Concrete 0 ft / 0 m 791 ft / 241 m
31 131 ft / 40 m 6,882 ft / 2,098 m 303.86° 312.84° Concrete 991 ft / 302 m 0 ft / 0 m

Approach Navaids

Runway Type Ident Frequency Range Bearing (true) Bearing (mag) Slope Elevation
13 Localiser AE 109.50 MHz 18 nm / 33 km 123.95° 132.94° - 17 ft / 5 m (AMSL)
13 Glidescope AE 109.50 MHz 10 nm / 19 km 124.47° 133.45° 3.00° 17 ft / 5 m (AMSL)
13 DME AE 109.50 MHz 18 nm / 33 km - - - 17 ft / 5 m (AMSL)

Popular Alternatives